sensor_id;sensor_type;location;lat;lon;timestamp;P1;durP1;ratioP1;P2;durP2;ratioP2
10365;SDS011;5229;41.820;23.490;2023-05-10T00:00:38;0.70;;;0.70;;
10365;SDS011;5229;41.820;23.490;2023-05-10T00:03:05;0.70;;;0.70;;
10365;SDS011;5229;41.820;23.490;2023-05-10T00:05:32;0.53;;;0.53;;
10365;SDS011;5229;41.820;23.490;2023-05-10T00:07:59;1.00;;;0.67;;
10365;SDS011;5229;41.820;23.490;2023-05-10T00:10:26;0.70;;;0.70;;
10365;SDS011;5229;41.820;23.490;2023-05-10T00:12:52;0.80;;;0.80;;
10365;SDS011;5229;41.820;23.490;2023-05-10T00:15:21;0.60;;;0.60;;
10365;SDS011;5229;41.820;23.490;2023-05-10T00:17:47;3.27;;;0.67;;
10365;SDS011;5229;41.820;23.490;2023-05-10T00:20:14;0.73;;;0.73;;
10365;SDS011;5229;41.820;23.490;2023-05-10T00:22:41;0.80;;;0.80;;
10365;SDS011;5229;41.820;23.490;2023-05-10T00:25:08;1.43;;;0.90;;
10365;SDS011;5229;41.820;23.490;2023-05-10T00:27:35;0.93;;;0.80;;
10365;SDS011;5229;41.820;23.490;2023-05-10T00:30:02;0.73;;;0.60;;
10365;SDS011;5229;41.820;23.490;2023-05-10T00:32:31;1.10;;;1.00;;
10365;SDS011;5229;41.820;23.490;2023-05-10T00:34:58;0.70;;;0.70;;
10365;SDS011;5229;41.820;23.490;2023-05-10T00:37:24;0.67;;;0.67;;
10365;SDS011;5229;41.820;23.490;2023-05-10T00:39:51;2.07;;;0.80;;
10365;SDS011;5229;41.820;23.490;2023-05-10T00:42:18;0.80;;;0.70;;
10365;SDS011;5229;41.820;23.490;2023-05-10T00:44:45;0.60;;;0.60;;
10365;SDS011;5229;41.820;23.490;2023-05-10T00:47:11;1.07;;;1.00;;
10365;SDS011;5229;41.820;23.490;2023-05-10T00:49:40;0.83;;;0.83;;
10365;SDS011;5229;41.820;23.490;2023-05-10T00:52:07;0.87;;;0.87;;
10365;SDS011;5229;41.820;23.490;2023-05-10T00:54:34;0.80;;;0.80;;
10365;SDS011;5229;41.820;23.490;2023-05-10T00:57:02;0.80;;;0.80;;
10365;SDS011;5229;41.820;23.490;2023-05-10T00:59:29;1.03;;;1.00;;
10365;SDS011;5229;41.820;23.490;2023-05-10T01:01:56;1.10;;;1.00;;
10365;SDS011;5229;41.820;23.490;2023-05-10T01:04:23;1.20;;;1.10;;
10365;SDS011;5229;41.820;23.490;2023-05-10T01:06:52;2.07;;;1.03;;
10365;SDS011;5229;41.820;23.490;2023-05-10T01:09:19;1.10;;;0.90;;
10365;SDS011;5229;41.820;23.490;2023-05-10T01:11:47;1.10;;;1.00;;
10365;SDS011;5229;41.820;23.490;2023-05-10T01:14:15;0.83;;;0.83;;
10365;SDS011;5229;41.820;23.490;2023-05-10T01:16:46;0.80;;;0.80;;
10365;SDS011;5229;41.820;23.490;2023-05-10T01:19:17;1.00;;;1.00;;
10365;SDS011;5229;41.820;23.490;2023-05-10T01:21:48;1.10;;;1.00;;
10365;SDS011;5229;41.820;23.490;2023-05-10T01:27:29;2.07;;;1.03;;
10365;SDS011;5229;41.820;23.490;2023-05-10T01:30:50;0.83;;;0.83;;
10365;SDS011;5229;41.820;23.490;2023-05-10T01:33:33;0.83;;;0.83;;
10365;SDS011;5229;41.820;23.490;2023-05-10T01:36:06;0.70;;;0.70;;
10365;SDS011;5229;41.820;23.490;2023-05-10T01:38:41;0.67;;;0.60;;
10365;SDS011;5229;41.820;23.490;2023-05-10T01:41:16;0.90;;;0.80;;
10365;SDS011;5229;41.820;23.490;2023-05-10T01:43:48;0.90;;;0.90;;
10365;SDS011;5229;41.820;23.490;2023-05-10T01:46:23;2.37;;;0.70;;
10365;SDS011;5229;41.820;23.490;2023-05-10T01:48:55;1.07;;;0.70;;
10365;SDS011;5229;41.820;23.490;2023-05-10T01:51:26;0.67;;;0.67;;
10365;SDS011;5229;41.820;23.490;2023-05-10T01:53:57;0.40;;;0.40;;
10365;SDS011;5229;41.820;23.490;2023-05-10T01:56:26;0.60;;;0.60;;
10365;SDS011;5229;41.820;23.490;2023-05-10T01:58:55;2.77;;;0.70;;
10365;SDS011;5229;41.820;23.490;2023-05-10T02:01:25;0.67;;;0.67;;
10365;SDS011;5229;41.820;23.490;2023-05-10T02:03:54;1.13;;;0.80;;
10365;SDS011;5229;41.820;23.490;2023-05-10T02:06:24;0.60;;;0.60;;
10365;SDS011;5229;41.820;23.490;2023-05-10T02:08:53;0.70;;;0.70;;
10365;SDS011;5229;41.820;23.490;2023-05-10T02:11:21;0.80;;;0.80;;
10365;SDS011;5229;41.820;23.490;2023-05-10T02:13:49;0.70;;;0.60;;
10365;SDS011;5229;41.820;23.490;2023-05-10T02:16:17;0.80;;;0.80;;
10365;SDS011;5229;41.820;23.490;2023-05-10T02:18:50;0.63;;;0.63;;
10365;SDS011;5229;41.820;23.490;2023-05-10T02:21:20;0.60;;;0.60;;
10365;SDS011;5229;41.820;23.490;2023-05-10T02:23:48;0.60;;;0.60;;
10365;SDS011;5229;41.820;23.490;2023-05-10T02:26:18;1.90;;;0.80;;
10365;SDS011;5229;41.820;23.490;2023-05-10T02:28:50;1.23;;;0.73;;
10365;SDS011;5229;41.820;23.490;2023-05-10T02:31:17;0.70;;;0.70;;
10365;SDS011;5229;41.820;23.490;2023-05-10T02:33:45;0.80;;;0.80;;
10365;SDS011;5229;41.820;23.490;2023-05-10T02:36:13;0.30;;;0.30;;
10365;SDS011;5229;41.820;23.490;2023-05-10T02:38:42;1.60;;;0.50;;
10365;SDS011;5229;41.820;23.490;2023-05-10T02:41:10;1.00;;;0.70;;
10365;SDS011;5229;41.820;23.490;2023-05-10T02:43:38;0.80;;;0.73;;
10365;SDS011;5229;41.820;23.490;2023-05-10T02:46:08;0.70;;;0.70;;
10365;SDS011;5229;41.820;23.490;2023-05-10T02:48:34;0.60;;;0.60;;
10365;SDS011;5229;41.820;23.490;2023-05-10T02:51:03;1.13;;;0.70;;
10365;SDS011;5229;41.820;23.490;2023-05-10T02:53:34;0.57;;;0.57;;
10365;SDS011;5229;41.820;23.490;2023-05-10T02:56:08;0.53;;;0.50;;
10365;SDS011;5229;41.820;23.490;2023-05-10T02:58:39;0.67;;;0.53;;
10365;SDS011;5229;41.820;23.490;2023-05-10T03:01:06;0.57;;;0.57;;
10365;SDS011;5229;41.820;23.490;2023-05-10T03:03:33;0.77;;;0.67;;
10365;SDS011;5229;41.820;23.490;2023-05-10T03:06:00;0.80;;;0.80;;
10365;SDS011;5229;41.820;23.490;2023-05-10T03:08:27;0.53;;;0.53;;
10365;SDS011;5229;41.820;23.490;2023-05-10T03:10:57;0.63;;;0.63;;
10365;SDS011;5229;41.820;23.490;2023-05-10T03:13:39;0.60;;;0.60;;
10365;SDS011;5229;41.820;23.490;2023-05-10T03:16:15;0.80;;;0.60;;
10365;SDS011;5229;41.820;23.490;2023-05-10T03:18:50;0.50;;;0.50;;
10365;SDS011;5229;41.820;23.490;2023-05-10T03:21:22;0.53;;;0.53;;
10365;SDS011;5229;41.820;23.490;2023-05-10T03:23:56;0.40;;;0.40;;
10365;SDS011;5229;41.820;23.490;2023-05-10T03:26:26;0.50;;;0.50;;
10365;SDS011;5229;41.820;23.490;2023-05-10T03:28:55;0.43;;;0.43;;
10365;SDS011;5229;41.820;23.490;2023-05-10T03:31:24;0.90;;;0.70;;
10365;SDS011;5229;41.820;23.490;2023-05-10T03:33:51;0.60;;;0.60;;
10365;SDS011;5229;41.820;23.490;2023-05-10T03:36:19;0.90;;;0.80;;
10365;SDS011;5229;41.820;23.490;2023-05-10T03:38:46;1.03;;;0.47;;
10365;SDS011;5229;41.820;23.490;2023-05-10T03:41:12;0.47;;;0.47;;
10365;SDS011;5229;41.820;23.490;2023-05-10T03:43:39;0.40;;;0.40;;
10365;SDS011;5229;41.820;23.490;2023-05-10T03:46:07;0.70;;;0.70;;
10365;SDS011;5229;41.820;23.490;2023-05-10T03:48:34;2.57;;;0.70;;
10365;SDS011;5229;41.820;23.490;2023-05-10T03:51:01;0.63;;;0.63;;
10365;SDS011;5229;41.820;23.490;2023-05-10T03:53:28;0.83;;;0.70;;
10365;SDS011;5229;41.820;23.490;2023-05-10T03:55:55;0.77;;;0.60;;
10365;SDS011;5229;41.820;23.490;2023-05-10T03:58:21;0.50;;;0.50;;
10365;SDS011;5229;41.820;23.490;2023-05-10T04:00:48;1.90;;;0.70;;
10365;SDS011;5229;41.820;23.490;2023-05-10T04:03:16;0.60;;;0.60;;
10365;SDS011;5229;41.820;23.490;2023-05-10T04:05:43;0.97;;;0.97;;
10365;SDS011;5229;41.820;23.490;2023-05-10T04:08:10;1.10;;;1.10;;
10365;SDS011;5229;41.820;23.490;2023-05-10T04:10:36;1.60;;;1.50;;
10365;SDS011;5229;41.820;23.490;2023-05-10T04:13:03;1.70;;;1.57;;
10365;SDS011;5229;41.820;23.490;2023-05-10T04:15:30;1.70;;;1.60;;
10365;SDS011;5229;41.820;23.490;2023-05-10T04:17:57;3.40;;;1.93;;
10365;SDS011;5229;41.820;23.490;2023-05-10T04:20:25;1.97;;;1.87;;
10365;SDS011;5229;41.820;23.490;2023-05-10T04:22:52;1.93;;;1.83;;
10365;SDS011;5229;41.820;23.490;2023-05-10T04:25:19;1.83;;;1.63;;
10365;SDS011;5229;41.820;23.490;2023-05-10T04:27:45;1.80;;;1.70;;
10365;SDS011;5229;41.820;23.490;2023-05-10T04:30:12;3.10;;;1.67;;
10365;SDS011;5229;41.820;23.490;2023-05-10T04:32:39;1.30;;;1.20;;
10365;SDS011;5229;41.820;23.490;2023-05-10T04:35:06;1.13;;;1.10;;
10365;SDS011;5229;41.820;23.490;2023-05-10T04:37:36;1.50;;;1.40;;
10365;SDS011;5229;41.820;23.490;2023-05-10T04:40:03;1.23;;;1.13;;
10365;SDS011;5229;41.820;23.490;2023-05-10T04:42:31;1.30;;;1.20;;
10365;SDS011;5229;41.820;23.490;2023-05-10T04:44:58;1.33;;;1.23;;
10365;SDS011;5229;41.820;23.490;2023-05-10T04:47:25;1.17;;;1.10;;
10365;SDS011;5229;41.820;23.490;2023-05-10T04:49:51;1.30;;;1.20;;
10365;SDS011;5229;41.820;23.490;2023-05-10T04:52:18;1.20;;;0.97;;
10365;SDS011;5229;41.820;23.490;2023-05-10T04:54:46;1.20;;;1.00;;
10365;SDS011;5229;41.820;23.490;2023-05-10T04:57:13;1.53;;;1.40;;
10365;SDS011;5229;41.820;23.490;2023-05-10T04:59:40;1.00;;;1.00;;
10365;SDS011;5229;41.820;23.490;2023-05-10T05:02:07;1.33;;;1.23;;
10365;SDS011;5229;41.820;23.490;2023-05-10T05:04:34;1.30;;;1.20;;
10365;SDS011;5229;41.820;23.490;2023-05-10T05:07:01;1.50;;;1.40;;
10365;SDS011;5229;41.820;23.490;2023-05-10T05:09:28;1.40;;;1.30;;
10365;SDS011;5229;41.820;23.490;2023-05-10T05:11:56;1.40;;;1.30;;
10365;SDS011;5229;41.820;23.490;2023-05-10T05:14:23;1.23;;;1.13;;
10365;SDS011;5229;41.820;23.490;2023-05-10T05:16:50;1.40;;;1.30;;
10365;SDS011;5229;41.820;23.490;2023-05-10T05:19:17;1.47;;;1.37;;
10365;SDS011;5229;41.820;23.490;2023-05-10T05:21:43;1.20;;;1.10;;
10365;SDS011;5229;41.820;23.490;2023-05-10T05:24:10;1.20;;;1.10;;
10365;SDS011;5229;41.820;23.490;2023-05-10T05:26:37;1.33;;;1.23;;
10365;SDS011;5229;41.820;23.490;2023-05-10T05:29:06;1.20;;;1.10;;
10365;SDS011;5229;41.820;23.490;2023-05-10T05:31:33;1.50;;;1.40;;
10365;SDS011;5229;41.820;23.490;2023-05-10T05:34:00;3.03;;;1.60;;
10365;SDS011;5229;41.820;23.490;2023-05-10T05:36:27;2.03;;;1.67;;
10365;SDS011;5229;41.820;23.490;2023-05-10T05:38:53;1.90;;;1.80;;
10365;SDS011;5229;41.820;23.490;2023-05-10T05:41:20;1.90;;;1.70;;
10365;SDS011;5229;41.820;23.490;2023-05-10T05:43:49;2.30;;;2.10;;
10365;SDS011;5229;41.820;23.490;2023-05-10T05:46:17;2.17;;;2.03;;
10365;SDS011;5229;41.820;23.490;2023-05-10T05:48:43;2.43;;;2.13;;
10365;SDS011;5229;41.820;23.490;2023-05-10T05:51:10;3.93;;;2.80;;
10365;SDS011;5229;41.820;23.490;2023-05-10T05:53:37;3.63;;;3.00;;
10365;SDS011;5229;41.820;23.490;2023-05-10T05:56:04;4.87;;;3.23;;
10365;SDS011;5229;41.820;23.490;2023-05-10T05:58:31;4.73;;;3.83;;
10365;SDS011;5229;41.820;23.490;2023-05-10T06:00:57;3.43;;;3.13;;
10365;SDS011;5229;41.820;23.490;2023-05-10T06:03:26;4.77;;;3.43;;
10365;SDS011;5229;41.820;23.490;2023-05-10T06:05:52;4.27;;;3.57;;
10365;SDS011;5229;41.820;23.490;2023-05-10T06:08:19;4.73;;;3.50;;
10365;SDS011;5229;41.820;23.490;2023-05-10T06:10:46;3.47;;;3.17;;
10365;SDS011;5229;41.820;23.490;2023-05-10T06:13:13;2.80;;;2.23;;
10365;SDS011;5229;41.820;23.490;2023-05-10T06:15:40;2.30;;;2.10;;
10365;SDS011;5229;41.820;23.490;2023-05-10T06:18:07;2.53;;;2.03;;
10365;SDS011;5229;41.820;23.490;2023-05-10T06:20:35;4.30;;;3.90;;
10365;SDS011;5229;41.820;23.490;2023-05-10T06:23:02;4.00;;;3.60;;
10365;SDS011;5229;41.820;23.490;2023-05-10T06:25:28;4.20;;;3.70;;
10365;SDS011;5229;41.820;23.490;2023-05-10T06:27:55;4.90;;;4.27;;
10365;SDS011;5229;41.820;23.490;2023-05-10T06:30:23;4.23;;;3.83;;
10365;SDS011;5229;41.820;23.490;2023-05-10T06:32:53;3.83;;;2.80;;
10365;SDS011;5229;41.820;23.490;2023-05-10T06:35:20;3.43;;;2.90;;
10365;SDS011;5229;41.820;23.490;2023-05-10T06:37:48;3.50;;;3.20;;
10365;SDS011;5229;41.820;23.490;2023-05-10T06:40:16;3.87;;;3.20;;
10365;SDS011;5229;41.820;23.490;2023-05-10T06:42:43;4.70;;;4.17;;
10365;SDS011;5229;41.820;23.490;2023-05-10T06:45:11;4.23;;;3.63;;
10365;SDS011;5229;41.820;23.490;2023-05-10T06:47:39;4.20;;;3.80;;
10365;SDS011;5229;41.820;23.490;2023-05-10T06:50:06;4.63;;;4.07;;
10365;SDS011;5229;41.820;23.490;2023-05-10T06:52:33;4.63;;;4.10;;
10365;SDS011;5229;41.820;23.490;2023-05-10T06:55:02;4.67;;;3.87;;
10365;SDS011;5229;41.820;23.490;2023-05-10T06:57:29;4.03;;;3.47;;
10365;SDS011;5229;41.820;23.490;2023-05-10T06:59:56;4.33;;;3.90;;
10365;SDS011;5229;41.820;23.490;2023-05-10T07:02:23;4.47;;;3.57;;
10365;SDS011;5229;41.820;23.490;2023-05-10T07:04:50;4.00;;;3.60;;
10365;SDS011;5229;41.820;23.490;2023-05-10T07:07:17;3.70;;;3.30;;
10365;SDS011;5229;41.820;23.490;2023-05-10T07:09:44;3.43;;;3.13;;
10365;SDS011;5229;41.820;23.490;2023-05-10T07:12:12;3.10;;;2.80;;
10365;SDS011;5229;41.820;23.490;2023-05-10T07:14:39;5.97;;;4.03;;
10365;SDS011;5229;41.820;23.490;2023-05-10T07:17:06;7.63;;;5.47;;
10365;SDS011;5229;41.820;23.490;2023-05-10T07:19:33;4.00;;;3.60;;
10365;SDS011;5229;41.820;23.490;2023-05-10T07:22:00;3.83;;;3.50;;
10365;SDS011;5229;41.820;23.490;2023-05-10T07:24:27;4.97;;;3.63;;
10365;SDS011;5229;41.820;23.490;2023-05-10T07:26:53;3.60;;;3.30;;
10365;SDS011;5229;41.820;23.490;2023-05-10T07:29:22;2.93;;;2.73;;
10365;SDS011;5229;41.820;23.490;2023-05-10T07:31:48;3.03;;;2.73;;
10365;SDS011;5229;41.820;23.490;2023-05-10T07:34:15;2.57;;;2.37;;
10365;SDS011;5229;41.820;23.490;2023-05-10T07:36:42;2.87;;;2.60;;
10365;SDS011;5229;41.820;23.490;2023-05-10T07:39:09;3.40;;;3.03;;
10365;SDS011;5229;41.820;23.490;2023-05-10T07:41:35;3.37;;;3.07;;
10365;SDS011;5229;41.820;23.490;2023-05-10T07:44:04;4.80;;;4.00;;
10365;SDS011;5229;41.820;23.490;2023-05-10T07:46:32;5.10;;;4.27;;
10365;SDS011;5229;41.820;23.490;2023-05-10T07:48:59;4.73;;;4.10;;
10365;SDS011;5229;41.820;23.490;2023-05-10T07:51:26;4.10;;;3.70;;
10365;SDS011;5229;41.820;23.490;2023-05-10T07:53:53;3.63;;;3.33;;
10365;SDS011;5229;41.820;23.490;2023-05-10T07:56:20;3.83;;;3.47;;
10365;SDS011;5229;41.820;23.490;2023-05-10T07:58:49;4.83;;;4.20;;
10365;SDS011;5229;41.820;23.490;2023-05-10T08:01:16;4.77;;;3.53;;
10365;SDS011;5229;41.820;23.490;2023-05-10T08:03:44;3.50;;;3.20;;
10365;SDS011;5229;41.820;23.490;2023-05-10T08:06:11;3.77;;;3.40;;
10365;SDS011;5229;41.820;23.490;2023-05-10T08:08:38;3.83;;;3.47;;
10365;SDS011;5229;41.820;23.490;2023-05-10T08:11:05;4.57;;;3.80;;
10365;SDS011;5229;41.820;23.490;2023-05-10T08:13:31;3.77;;;3.37;;
10365;SDS011;5229;41.820;23.490;2023-05-10T08:15:59;4.67;;;4.10;;
10365;SDS011;5229;41.820;23.490;2023-05-10T08:18:25;5.03;;;3.70;;
10365;SDS011;5229;41.820;23.490;2023-05-10T08:20:54;4.27;;;3.40;;
10365;SDS011;5229;41.820;23.490;2023-05-10T08:23:20;3.40;;;3.10;;
10365;SDS011;5229;41.820;23.490;2023-05-10T08:25:47;3.33;;;2.93;;
10365;SDS011;5229;41.820;23.490;2023-05-10T08:28:14;3.33;;;3.03;;
10365;SDS011;5229;41.820;23.490;2023-05-10T08:30:41;3.77;;;3.43;;
10365;SDS011;5229;41.820;23.490;2023-05-10T08:33:07;3.80;;;3.40;;
10365;SDS011;5229;41.820;23.490;2023-05-10T08:35:34;4.00;;;3.60;;
10365;SDS011;5229;41.820;23.490;2023-05-10T08:38:02;4.00;;;3.63;;
10365;SDS011;5229;41.820;23.490;2023-05-10T08:40:29;4.07;;;3.67;;
10365;SDS011;5229;41.820;23.490;2023-05-10T08:42:58;4.00;;;3.60;;
10365;SDS011;5229;41.820;23.490;2023-05-10T08:45:32;3.97;;;3.57;;
10365;SDS011;5229;41.820;23.490;2023-05-10T08:47:59;4.03;;;3.67;;
10365;SDS011;5229;41.820;23.490;2023-05-10T08:50:28;5.60;;;3.40;;
10365;SDS011;5229;41.820;23.490;2023-05-10T08:52:57;4.80;;;3.83;;
10365;SDS011;5229;41.820;23.490;2023-05-10T08:55:28;5.97;;;3.60;;
10365;SDS011;5229;41.820;23.490;2023-05-10T08:57:55;3.40;;;3.10;;
10365;SDS011;5229;41.820;23.490;2023-05-10T09:00:22;4.43;;;3.47;;
10365;SDS011;5229;41.820;23.490;2023-05-10T09:02:50;3.20;;;2.90;;
10365;SDS011;5229;41.820;23.490;2023-05-10T09:05:17;4.50;;;3.33;;
10365;SDS011;5229;41.820;23.490;2023-05-10T09:07:43;3.40;;;3.00;;
10365;SDS011;5229;41.820;23.490;2023-05-10T09:10:11;4.63;;;3.50;;
10365;SDS011;5229;41.820;23.490;2023-05-10T09:12:40;4.80;;;3.40;;
10365;SDS011;5229;41.820;23.490;2023-05-10T09:15:09;4.33;;;3.20;;
10365;SDS011;5229;41.820;23.490;2023-05-10T09:17:37;3.83;;;3.43;;
10365;SDS011;5229;41.820;23.490;2023-05-10T09:20:06;3.87;;;3.27;;
10365;SDS011;5229;41.820;23.490;2023-05-10T09:22:34;3.47;;;3.17;;
10365;SDS011;5229;41.820;23.490;2023-05-10T09:25:04;3.67;;;3.37;;
10365;SDS011;5229;41.820;23.490;2023-05-10T09:27:34;3.87;;;3.33;;
10365;SDS011;5229;41.820;23.490;2023-05-10T09:30:03;3.77;;;3.47;;
10365;SDS011;5229;41.820;23.490;2023-05-10T09:32:37;4.17;;;3.40;;
10365;SDS011;5229;41.820;23.490;2023-05-10T09:35:08;3.97;;;3.40;;
10365;SDS011;5229;41.820;23.490;2023-05-10T09:37:35;4.40;;;3.43;;
10365;SDS011;5229;41.820;23.490;2023-05-10T09:40:05;3.47;;;3.07;;
10365;SDS011;5229;41.820;23.490;2023-05-10T09:42:34;4.97;;;3.13;;
10365;SDS011;5229;41.820;23.490;2023-05-10T09:45:04;3.20;;;2.90;;
10365;SDS011;5229;41.820;23.490;2023-05-10T09:47:31;3.10;;;2.80;;
10365;SDS011;5229;41.820;23.490;2023-05-10T09:49:59;3.73;;;3.00;;
10365;SDS011;5229;41.820;23.490;2023-05-10T09:52:28;3.17;;;2.67;;
10365;SDS011;5229;41.820;23.490;2023-05-10T09:54:55;2.67;;;2.43;;
10365;SDS011;5229;41.820;23.490;2023-05-10T09:57:23;2.50;;;2.30;;
10365;SDS011;5229;41.820;23.490;2023-05-10T09:59:50;2.50;;;2.30;;
10365;SDS011;5229;41.820;23.490;2023-05-10T10:02:20;1.97;;;1.83;;
10365;SDS011;5229;41.820;23.490;2023-05-10T10:04:54;2.50;;;2.27;;
10365;SDS011;5229;41.820;23.490;2023-05-10T10:07:22;2.30;;;2.10;;
10365;SDS011;5229;41.820;23.490;2023-05-10T10:09:50;1.90;;;1.80;;
10365;SDS011;5229;41.820;23.490;2023-05-10T10:12:18;2.30;;;2.10;;
10365;SDS011;5229;41.820;23.490;2023-05-10T10:14:45;2.30;;;1.90;;
10365;SDS011;5229;41.820;23.490;2023-05-10T10:17:13;1.43;;;1.30;;
10365;SDS011;5229;41.820;23.490;2023-05-10T10:19:42;0.87;;;0.87;;
10365;SDS011;5229;41.820;23.490;2023-05-10T10:22:09;1.27;;;1.17;;
10365;SDS011;5229;41.820;23.490;2023-05-10T10:24:37;1.37;;;1.27;;
10365;SDS011;5229;41.820;23.490;2023-05-10T10:27:07;1.10;;;1.10;;
10365;SDS011;5229;41.820;23.490;2023-05-10T10:29:45;1.77;;;1.57;;
10365;SDS011;5229;41.820;23.490;2023-05-10T10:32:20;1.50;;;1.40;;
10365;SDS011;5229;41.820;23.490;2023-05-10T10:34:54;1.20;;;1.13;;
10365;SDS011;5229;41.820;23.490;2023-05-10T10:37:22;1.93;;;1.73;;
10365;SDS011;5229;41.820;23.490;2023-05-10T10:39:48;1.53;;;1.43;;
10365;SDS011;5229;41.820;23.490;2023-05-10T10:42:25;1.40;;;1.30;;
10365;SDS011;5229;41.820;23.490;2023-05-10T10:45:13;1.70;;;1.50;;
10365;SDS011;5229;41.820;23.490;2023-05-10T10:47:40;1.60;;;1.50;;
10365;SDS011;5229;41.820;23.490;2023-05-10T10:50:09;1.50;;;1.40;;
10365;SDS011;5229;41.820;23.490;2023-05-10T10:52:38;1.73;;;1.60;;
10365;SDS011;5229;41.820;23.490;2023-05-10T10:55:05;1.60;;;1.50;;
10365;SDS011;5229;41.820;23.490;2023-05-10T10:57:42;1.70;;;1.60;;
10365;SDS011;5229;41.820;23.490;2023-05-10T11:00:21;2.50;;;2.10;;
10365;SDS011;5229;41.820;23.490;2023-05-10T11:02:50;2.40;;;2.20;;
10365;SDS011;5229;41.820;23.490;2023-05-10T11:05:33;2.27;;;2.07;;
10365;SDS011;5229;41.820;23.490;2023-05-10T11:08:17;3.40;;;2.77;;
10365;SDS011;5229;41.820;23.490;2023-05-10T11:10:53;6.30;;;2.80;;
10365;SDS011;5229;41.820;23.490;2023-05-10T11:13:29;3.33;;;2.57;;
10365;SDS011;5229;41.820;23.490;2023-05-10T11:15:57;3.70;;;2.40;;
10365;SDS011;5229;41.820;23.490;2023-05-10T11:18:25;2.90;;;2.40;;
10365;SDS011;5229;41.820;23.490;2023-05-10T11:20:56;2.73;;;2.40;;
10365;SDS011;5229;41.820;23.490;2023-05-10T11:23:29;2.90;;;2.20;;
10365;SDS011;5229;41.820;23.490;2023-05-10T11:25:58;2.70;;;2.50;;
10365;SDS011;5229;41.820;23.490;2023-05-10T11:28:26;2.77;;;2.50;;
10365;SDS011;5229;41.820;23.490;2023-05-10T11:30:53;2.60;;;2.40;;
10365;SDS011;5229;41.820;23.490;2023-05-10T11:33:21;2.80;;;2.50;;
10365;SDS011;5229;41.820;23.490;2023-05-10T11:35:47;2.60;;;2.40;;
10365;SDS011;5229;41.820;23.490;2023-05-10T11:38:16;2.17;;;1.93;;
10365;SDS011;5229;41.820;23.490;2023-05-10T11:40:43;2.60;;;2.40;;
10365;SDS011;5229;41.820;23.490;2023-05-10T11:43:09;2.63;;;2.30;;
10365;SDS011;5229;41.820;23.490;2023-05-10T11:45:37;2.57;;;2.17;;
10365;SDS011;5229;41.820;23.490;2023-05-10T11:48:06;6.10;;;1.90;;
10365;SDS011;5229;41.820;23.490;2023-05-10T11:50:33;2.30;;;2.10;;
10365;SDS011;5229;41.820;23.490;2023-05-10T11:53:00;2.20;;;2.00;;
10365;SDS011;5229;41.820;23.490;2023-05-10T11:55:28;4.07;;;2.13;;
10365;SDS011;5229;41.820;23.490;2023-05-10T11:57:59;2.00;;;1.83;;
10365;SDS011;5229;41.820;23.490;2023-05-10T12:00:28;1.33;;;1.23;;
10365;SDS011;5229;41.820;23.490;2023-05-10T12:02:55;3.13;;;1.90;;
10365;SDS011;5229;41.820;23.490;2023-05-10T12:05:22;1.77;;;1.67;;
10365;SDS011;5229;41.820;23.490;2023-05-10T12:07:50;2.27;;;2.07;;
10365;SDS011;5229;41.820;23.490;2023-05-10T12:10:17;1.87;;;1.77;;
10365;SDS011;5229;41.820;23.490;2023-05-10T12:12:53;2.20;;;1.77;;
10365;SDS011;5229;41.820;23.490;2023-05-10T12:15:20;2.50;;;2.00;;
10365;SDS011;5229;41.820;23.490;2023-05-10T12:17:47;2.13;;;1.90;;
10365;SDS011;5229;41.820;23.490;2023-05-10T12:20:16;2.13;;;1.60;;
10365;SDS011;5229;41.820;23.490;2023-05-10T12:22:44;2.13;;;1.77;;
10365;SDS011;5229;41.820;23.490;2023-05-10T12:25:12;1.80;;;1.70;;
10365;SDS011;5229;41.820;23.490;2023-05-10T12:27:39;1.53;;;1.43;;
10365;SDS011;5229;41.820;23.490;2023-05-10T12:30:08;1.60;;;1.50;;
10365;SDS011;5229;41.820;23.490;2023-05-10T12:32:38;2.83;;;2.40;;
10365;SDS011;5229;41.820;23.490;2023-05-10T12:35:06;2.23;;;2.03;;
10365;SDS011;5229;41.820;23.490;2023-05-10T12:37:34;2.50;;;2.30;;
10365;SDS011;5229;41.820;23.490;2023-05-10T12:40:05;2.87;;;2.53;;
10365;SDS011;5229;41.820;23.490;2023-05-10T12:42:34;2.97;;;2.77;;
10365;SDS011;5229;41.820;23.490;2023-05-10T12:45:01;3.20;;;2.90;;
10365;SDS011;5229;41.820;23.490;2023-05-10T12:47:30;2.50;;;2.30;;
10365;SDS011;5229;41.820;23.490;2023-05-10T12:49:57;3.07;;;2.77;;
10365;SDS011;5229;41.820;23.490;2023-05-10T12:52:24;2.93;;;2.63;;
10365;SDS011;5229;41.820;23.490;2023-05-10T12:54:51;3.00;;;2.33;;
10365;SDS011;5229;41.820;23.490;2023-05-10T12:57:18;2.97;;;2.70;;
10365;SDS011;5229;41.820;23.490;2023-05-10T12:59:45;3.40;;;2.80;;
10365;SDS011;5229;41.820;23.490;2023-05-10T13:02:12;2.93;;;2.67;;
10365;SDS011;5229;41.820;23.490;2023-05-10T13:04:41;3.67;;;3.27;;
10365;SDS011;5229;41.820;23.490;2023-05-10T13:07:08;3.60;;;3.30;;
10365;SDS011;5229;41.820;23.490;2023-05-10T13:09:35;4.10;;;3.70;;
10365;SDS011;5229;41.820;23.490;2023-05-10T13:12:02;3.20;;;2.90;;
10365;SDS011;5229;41.820;23.490;2023-05-10T13:14:29;2.70;;;2.50;;
10365;SDS011;5229;41.820;23.490;2023-05-10T13:16:56;2.77;;;2.30;;
10365;SDS011;5229;41.820;23.490;2023-05-10T13:19:23;2.23;;;2.03;;
10365;SDS011;5229;41.820;23.490;2023-05-10T13:21:51;3.03;;;2.33;;
10365;SDS011;5229;41.820;23.490;2023-05-10T13:24:18;2.33;;;2.13;;
10365;SDS011;5229;41.820;23.490;2023-05-10T13:26:45;2.90;;;2.60;;
10365;SDS011;5229;41.820;23.490;2023-05-10T13:29:12;3.53;;;2.80;;
10365;SDS011;5229;41.820;23.490;2023-05-10T13:31:38;2.93;;;2.53;;
10365;SDS011;5229;41.820;23.490;2023-05-10T13:34:05;3.00;;;2.70;;
10365;SDS011;5229;41.820;23.490;2023-05-10T13:36:32;3.63;;;3.00;;
10365;SDS011;5229;41.820;23.490;2023-05-10T13:39:00;3.77;;;3.07;;
10365;SDS011;5229;41.820;23.490;2023-05-10T13:41:28;8.87;;;3.27;;
10365;SDS011;5229;41.820;23.490;2023-05-10T13:43:55;3.07;;;2.77;;
10365;SDS011;5229;41.820;23.490;2023-05-10T13:46:22;3.60;;;3.03;;
10365;SDS011;5229;41.820;23.490;2023-05-10T13:48:48;3.17;;;2.53;;
10365;SDS011;5229;41.820;23.490;2023-05-10T13:51:15;4.43;;;2.90;;
10365;SDS011;5229;41.820;23.490;2023-05-10T13:53:42;3.10;;;2.80;;
10365;SDS011;5229;41.820;23.490;2023-05-10T13:56:10;3.10;;;2.60;;
10365;SDS011;5229;41.820;23.490;2023-05-10T13:58:37;4.00;;;2.73;;
10365;SDS011;5229;41.820;23.490;2023-05-10T14:01:03;3.07;;;2.50;;
10365;SDS011;5229;41.820;23.490;2023-05-10T14:03:30;2.70;;;2.47;;
10365;SDS011;5229;41.820;23.490;2023-05-10T14:05:57;2.53;;;2.33;;
10365;SDS011;5229;41.820;23.490;2023-05-10T14:08:24;2.27;;;2.07;;
10365;SDS011;5229;41.820;23.490;2023-05-10T14:10:52;2.90;;;2.13;;
10365;SDS011;5229;41.820;23.490;2023-05-10T14:13:22;3.03;;;2.60;;
10365;SDS011;5229;41.820;23.490;2023-05-10T14:15:49;4.37;;;2.63;;
10365;SDS011;5229;41.820;23.490;2023-05-10T14:18:16;2.50;;;1.97;;
10365;SDS011;5229;41.820;23.490;2023-05-10T14:20:43;2.70;;;2.37;;
10365;SDS011;5229;41.820;23.490;2023-05-10T14:23:10;2.97;;;2.37;;
10365;SDS011;5229;41.820;23.490;2023-05-10T14:25:37;2.30;;;2.10;;
10365;SDS011;5229;41.820;23.490;2023-05-10T14:28:04;3.83;;;3.53;;
10365;SDS011;5229;41.820;23.490;2023-05-10T14:30:32;2.20;;;2.00;;
10365;SDS011;5229;41.820;23.490;2023-05-10T14:33:00;2.13;;;1.93;;
10365;SDS011;5229;41.820;23.490;2023-05-10T14:35:27;1.90;;;1.80;;
10365;SDS011;5229;41.820;23.490;2023-05-10T14:37:56;2.50;;;2.23;;
10365;SDS011;5229;41.820;23.490;2023-05-10T14:40:22;2.80;;;2.30;;
10365;SDS011;5229;41.820;23.490;2023-05-10T14:42:49;2.30;;;2.10;;
10365;SDS011;5229;41.820;23.490;2023-05-10T14:45:17;2.43;;;2.23;;
10365;SDS011;5229;41.820;23.490;2023-05-10T14:47:46;1.87;;;1.77;;
10365;SDS011;5229;41.820;23.490;2023-05-10T14:50:13;2.33;;;1.80;;
10365;SDS011;5229;41.820;23.490;2023-05-10T14:52:42;1.87;;;1.70;;
10365;SDS011;5229;41.820;23.490;2023-05-10T14:55:09;1.83;;;1.73;;
10365;SDS011;5229;41.820;23.490;2023-05-10T14:57:36;3.80;;;1.93;;